sensor_id;sensor_type;location;lat;lon;timestamp;P1;durP1;ratioP1;P2;durP2;ratioP2
7289;SDS011;3686;52.678;13.252;2022-08-19T00:01:12;9.27;;;8.10;;
7289;SDS011;3686;52.678;13.252;2022-08-19T00:03:38;9.37;;;8.47;;
7289;SDS011;3686;52.678;13.252;2022-08-19T00:06:04;8.20;;;7.13;;
7289;SDS011;3686;52.678;13.252;2022-08-19T00:08:30;7.90;;;7.10;;
7289;SDS011;3686;52.678;13.252;2022-08-19T00:10:56;8.37;;;7.50;;
7289;SDS011;3686;52.678;13.252;2022-08-19T00:13:22;9.13;;;8.20;;
7289;SDS011;3686;52.678;13.252;2022-08-19T00:15:48;8.93;;;7.33;;
7289;SDS011;3686;52.678;13.252;2022-08-19T00:18:13;8.07;;;7.27;;
7289;SDS011;3686;52.678;13.252;2022-08-19T00:20:39;8.80;;;7.60;;
7289;SDS011;3686;52.678;13.252;2022-08-19T00:23:05;8.20;;;7.40;;
7289;SDS011;3686;52.678;13.252;2022-08-19T00:25:32;9.37;;;8.37;;
7289;SDS011;3686;52.678;13.252;2022-08-19T00:27:58;9.90;;;7.80;;
7289;SDS011;3686;52.678;13.252;2022-08-19T00:30:24;7.43;;;6.70;;
7289;SDS011;3686;52.678;13.252;2022-08-19T00:32:52;10.20;;;8.30;;
7289;SDS011;3686;52.678;13.252;2022-08-19T00:35:20;10.27;;;8.33;;
7289;SDS011;3686;52.678;13.252;2022-08-19T00:37:46;9.60;;;8.10;;
7289;SDS011;3686;52.678;13.252;2022-08-19T00:40:13;8.90;;;7.70;;
7289;SDS011;3686;52.678;13.252;2022-08-19T00:42:39;8.77;;;7.63;;
7289;SDS011;3686;52.678;13.252;2022-08-19T00:45:15;15.60;;;7.37;;
7289;SDS011;3686;52.678;13.252;2022-08-19T00:47:43;9.30;;;7.77;;
7289;SDS011;3686;52.678;13.252;2022-08-19T00:50:10;8.90;;;7.33;;
7289;SDS011;3686;52.678;13.252;2022-08-19T00:52:40;8.20;;;7.40;;
7289;SDS011;3686;52.678;13.252;2022-08-19T00:55:10;9.50;;;7.57;;
7289;SDS011;3686;52.678;13.252;2022-08-19T00:57:42;7.80;;;7.00;;
7289;SDS011;3686;52.678;13.252;2022-08-19T01:00:12;8.70;;;7.67;;
7289;SDS011;3686;52.678;13.252;2022-08-19T01:02:41;7.60;;;6.80;;
7289;SDS011;3686;52.678;13.252;2022-08-19T01:05:08;10.83;;;8.13;;
7289;SDS011;3686;52.678;13.252;2022-08-19T01:07:37;8.77;;;7.90;;
7289;SDS011;3686;52.678;13.252;2022-08-19T01:10:06;7.50;;;6.63;;
7289;SDS011;3686;52.678;13.252;2022-08-19T01:12:33;9.07;;;7.47;;
7289;SDS011;3686;52.678;13.252;2022-08-19T01:14:59;10.33;;;7.63;;
7289;SDS011;3686;52.678;13.252;2022-08-19T01:17:26;8.27;;;7.40;;
7289;SDS011;3686;52.678;13.252;2022-08-19T01:19:52;8.77;;;7.23;;
7289;SDS011;3686;52.678;13.252;2022-08-19T01:24:53;8.07;;;7.27;;
7289;SDS011;3686;52.678;13.252;2022-08-19T01:27:18;13.57;;;8.17;;
7289;SDS011;3686;52.678;13.252;2022-08-19T01:29:44;10.10;;;7.90;;
7289;SDS011;3686;52.678;13.252;2022-08-19T01:32:14;12.00;;;7.63;;
7289;SDS011;3686;52.678;13.252;2022-08-19T01:34:41;8.90;;;8.00;;
7289;SDS011;3686;52.678;13.252;2022-08-19T01:37:11;7.93;;;7.10;;
7289;SDS011;3686;52.678;13.252;2022-08-19T01:39:39;7.80;;;7.00;;
7289;SDS011;3686;52.678;13.252;2022-08-19T01:42:07;10.73;;;8.57;;
7289;SDS011;3686;52.678;13.252;2022-08-19T01:44:36;10.17;;;8.30;;
7289;SDS011;3686;52.678;13.252;2022-08-19T01:47:02;10.03;;;8.57;;
7289;SDS011;3686;52.678;13.252;2022-08-19T01:49:28;9.43;;;8.20;;
7289;SDS011;3686;52.678;13.252;2022-08-19T01:51:55;11.27;;;8.10;;
7289;SDS011;3686;52.678;13.252;2022-08-19T01:54:21;10.00;;;8.93;;
7289;SDS011;3686;52.678;13.252;2022-08-19T01:56:48;8.30;;;7.10;;
7289;SDS011;3686;52.678;13.252;2022-08-19T01:59:16;9.77;;;8.13;;
7289;SDS011;3686;52.678;13.252;2022-08-19T02:01:45;8.33;;;7.50;;
7289;SDS011;3686;52.678;13.252;2022-08-19T02:04:11;9.07;;;8.20;;
7289;SDS011;3686;52.678;13.252;2022-08-19T02:06:37;9.73;;;8.73;;
7289;SDS011;3686;52.678;13.252;2022-08-19T02:09:03;9.50;;;8.20;;
7289;SDS011;3686;52.678;13.252;2022-08-19T02:11:31;8.70;;;7.80;;
7289;SDS011;3686;52.678;13.252;2022-08-19T02:17:21;10.43;;;8.43;;
7289;SDS011;3686;52.678;13.252;2022-08-19T02:19:47;9.70;;;8.10;;
7289;SDS011;3686;52.678;13.252;2022-08-19T02:22:13;8.87;;;7.77;;
7289;SDS011;3686;52.678;13.252;2022-08-19T02:24:39;10.00;;;7.40;;
7289;SDS011;3686;52.678;13.252;2022-08-19T02:27:05;11.50;;;9.30;;
7289;SDS011;3686;52.678;13.252;2022-08-19T02:29:31;10.07;;;8.20;;
7289;SDS011;3686;52.678;13.252;2022-08-19T02:31:57;9.77;;;8.53;;
7289;SDS011;3686;52.678;13.252;2022-08-19T02:34:23;14.70;;;8.70;;
7289;SDS011;3686;52.678;13.252;2022-08-19T02:36:50;9.97;;;8.93;;
7289;SDS011;3686;52.678;13.252;2022-08-19T02:39:16;10.73;;;8.50;;
7289;SDS011;3686;52.678;13.252;2022-08-19T02:41:42;10.97;;;9.70;;
7289;SDS011;3686;52.678;13.252;2022-08-19T02:44:08;10.87;;;8.00;;
7289;SDS011;3686;52.678;13.252;2022-08-19T02:46:34;9.20;;;8.30;;
7289;SDS011;3686;52.678;13.252;2022-08-19T02:49:02;8.77;;;7.90;;
7289;SDS011;3686;52.678;13.252;2022-08-19T02:51:39;8.70;;;7.80;;
7289;SDS011;3686;52.678;13.252;2022-08-19T02:54:07;9.80;;;8.37;;
7289;SDS011;3686;52.678;13.252;2022-08-19T02:56:34;8.63;;;7.77;;
7289;SDS011;3686;52.678;13.252;2022-08-19T02:59:01;10.03;;;8.30;;
7289;SDS011;3686;52.678;13.252;2022-08-19T03:01:29;10.70;;;8.73;;
7289;SDS011;3686;52.678;13.252;2022-08-19T03:03:56;11.27;;;9.10;;
7289;SDS011;3686;52.678;13.252;2022-08-19T03:06:24;11.13;;;8.83;;
7289;SDS011;3686;52.678;13.252;2022-08-19T03:08:54;11.37;;;8.47;;
7289;SDS011;3686;52.678;13.252;2022-08-19T03:24:29;12.50;;;9.23;;
7289;SDS011;3686;52.678;13.252;2022-08-19T03:26:55;9.43;;;8.53;;
7289;SDS011;3686;52.678;13.252;2022-08-19T03:29:22;9.67;;;8.23;;
7289;SDS011;3686;52.678;13.252;2022-08-19T03:31:48;9.87;;;8.50;;
7289;SDS011;3686;52.678;13.252;2022-08-19T03:34:26;11.57;;;8.73;;
7289;SDS011;3686;52.678;13.252;2022-08-19T03:36:54;10.27;;;9.17;;
7289;SDS011;3686;52.678;13.252;2022-08-19T03:39:21;12.80;;;9.20;;
7289;SDS011;3686;52.678;13.252;2022-08-19T03:41:48;10.13;;;9.13;;
7289;SDS011;3686;52.678;13.252;2022-08-19T03:44:17;10.80;;;8.80;;
7289;SDS011;3686;52.678;13.252;2022-08-19T03:46:50;12.13;;;9.93;;
7289;SDS011;3686;52.678;13.252;2022-08-19T03:49:21;10.40;;;9.00;;
7289;SDS011;3686;52.678;13.252;2022-08-19T03:51:48;10.03;;;8.83;;
7289;SDS011;3686;52.678;13.252;2022-08-19T03:54:16;11.13;;;9.40;;
7289;SDS011;3686;52.678;13.252;2022-08-19T03:56:45;11.23;;;9.63;;
7289;SDS011;3686;52.678;13.252;2022-08-19T03:59:14;9.63;;;8.47;;
7289;SDS011;3686;52.678;13.252;2022-08-19T04:01:42;11.87;;;9.30;;
7289;SDS011;3686;52.678;13.252;2022-08-19T04:04:08;13.53;;;9.03;;
7289;SDS011;3686;52.678;13.252;2022-08-19T04:06:35;13.90;;;9.10;;
7289;SDS011;3686;52.678;13.252;2022-08-19T04:09:04;10.00;;;8.30;;
7289;SDS011;3686;52.678;13.252;2022-08-19T04:11:34;10.73;;;9.27;;
7289;SDS011;3686;52.678;13.252;2022-08-19T04:14:07;9.57;;;8.10;;
7289;SDS011;3686;52.678;13.252;2022-08-19T04:16:34;12.47;;;9.90;;
7289;SDS011;3686;52.678;13.252;2022-08-19T04:19:01;11.67;;;9.00;;
7289;SDS011;3686;52.678;13.252;2022-08-19T04:21:28;9.33;;;8.13;;
7289;SDS011;3686;52.678;13.252;2022-08-19T04:23:54;8.77;;;7.87;;
7289;SDS011;3686;52.678;13.252;2022-08-19T04:26:23;11.97;;;8.83;;
7289;SDS011;3686;52.678;13.252;2022-08-19T04:28:50;11.20;;;7.80;;
7289;SDS011;3686;52.678;13.252;2022-08-19T04:31:21;9.10;;;7.80;;
7289;SDS011;3686;52.678;13.252;2022-08-19T04:33:55;8.13;;;7.33;;
7289;SDS011;3686;52.678;13.252;2022-08-19T04:36:27;11.23;;;8.20;;
7289;SDS011;3686;52.678;13.252;2022-08-19T04:38:56;11.00;;;8.00;;
7289;SDS011;3686;52.678;13.252;2022-08-19T04:41:25;10.90;;;7.87;;
7289;SDS011;3686;52.678;13.252;2022-08-19T04:44:10;10.20;;;7.57;;
7289;SDS011;3686;52.678;13.252;2022-08-19T04:46:36;9.47;;;7.70;;
7289;SDS011;3686;52.678;13.252;2022-08-19T04:49:03;9.03;;;8.10;;
7289;SDS011;3686;52.678;13.252;2022-08-19T04:51:30;8.80;;;7.80;;
7289;SDS011;3686;52.678;13.252;2022-08-19T04:53:59;10.33;;;7.90;;
7289;SDS011;3686;52.678;13.252;2022-08-19T04:56:26;12.10;;;8.83;;
7289;SDS011;3686;52.678;13.252;2022-08-19T04:58:52;11.47;;;8.63;;
7289;SDS011;3686;52.678;13.252;2022-08-19T05:01:21;9.00;;;8.10;;
7289;SDS011;3686;52.678;13.252;2022-08-19T05:03:48;9.87;;;8.50;;
7289;SDS011;3686;52.678;13.252;2022-08-19T05:06:15;12.00;;;8.50;;
7289;SDS011;3686;52.678;13.252;2022-08-19T05:08:43;9.93;;;8.00;;
7289;SDS011;3686;52.678;13.252;2022-08-19T05:13:36;10.70;;;8.83;;
7289;SDS011;3686;52.678;13.252;2022-08-19T05:16:02;10.37;;;8.27;;
7289;SDS011;3686;52.678;13.252;2022-08-19T05:18:28;11.10;;;9.40;;
7289;SDS011;3686;52.678;13.252;2022-08-19T05:21:14;9.10;;;8.20;;
7289;SDS011;3686;52.678;13.252;2022-08-19T05:23:59;10.70;;;8.80;;
7289;SDS011;3686;52.678;13.252;2022-08-19T05:26:25;11.90;;;8.60;;
7289;SDS011;3686;52.678;13.252;2022-08-19T05:28:54;10.13;;;7.90;;
7289;SDS011;3686;52.678;13.252;2022-08-19T05:31:20;10.87;;;9.50;;
7289;SDS011;3686;52.678;13.252;2022-08-19T05:33:47;10.00;;;9.00;;
7289;SDS011;3686;52.678;13.252;2022-08-19T05:36:13;10.50;;;9.00;;
7289;SDS011;3686;52.678;13.252;2022-08-19T05:38:39;12.10;;;9.90;;
7289;SDS011;3686;52.678;13.252;2022-08-19T05:41:12;11.73;;;9.03;;
7289;SDS011;3686;52.678;13.252;2022-08-19T05:43:39;12.40;;;9.37;;
7289;SDS011;3686;52.678;13.252;2022-08-19T05:46:05;10.50;;;8.67;;
7289;SDS011;3686;52.678;13.252;2022-08-19T05:48:32;9.97;;;8.97;;
7289;SDS011;3686;52.678;13.252;2022-08-19T05:51:02;12.30;;;9.90;;
7289;SDS011;3686;52.678;13.252;2022-08-19T05:53:30;13.33;;;9.63;;
7289;SDS011;3686;52.678;13.252;2022-08-19T05:55:55;9.53;;;8.37;;
7289;SDS011;3686;52.678;13.252;2022-08-19T05:58:21;9.03;;;8.10;;
7289;SDS011;3686;52.678;13.252;2022-08-19T06:00:46;10.50;;;9.17;;
7289;SDS011;3686;52.678;13.252;2022-08-19T06:03:12;9.17;;;8.17;;
7289;SDS011;3686;52.678;13.252;2022-08-19T06:05:38;9.20;;;8.30;;
7289;SDS011;3686;52.678;13.252;2022-08-19T06:08:04;9.97;;;8.10;;
7289;SDS011;3686;52.678;13.252;2022-08-19T06:10:30;9.27;;;8.37;;
7289;SDS011;3686;52.678;13.252;2022-08-19T06:12:56;12.93;;;10.00;;
7289;SDS011;3686;52.678;13.252;2022-08-19T06:15:21;11.07;;;9.27;;
7289;SDS011;3686;52.678;13.252;2022-08-19T06:17:50;11.97;;;9.93;;
7289;SDS011;3686;52.678;13.252;2022-08-19T06:20:16;10.87;;;9.77;;
7289;SDS011;3686;52.678;13.252;2022-08-19T06:22:43;13.07;;;9.73;;
7289;SDS011;3686;52.678;13.252;2022-08-19T06:25:11;10.77;;;9.17;;
7289;SDS011;3686;52.678;13.252;2022-08-19T06:27:38;13.97;;;10.77;;
7289;SDS011;3686;52.678;13.252;2022-08-19T06:30:05;11.17;;;9.70;;
7289;SDS011;3686;52.678;13.252;2022-08-19T06:32:32;10.20;;;9.20;;
7289;SDS011;3686;52.678;13.252;2022-08-19T06:34:58;16.53;;;9.87;;
7289;SDS011;3686;52.678;13.252;2022-08-19T06:37:23;14.67;;;9.90;;
7289;SDS011;3686;52.678;13.252;2022-08-19T06:39:49;10.67;;;9.57;;
7289;SDS011;3686;52.678;13.252;2022-08-19T06:42:15;12.93;;;10.40;;
7289;SDS011;3686;52.678;13.252;2022-08-19T06:44:44;11.90;;;10.00;;
7289;SDS011;3686;52.678;13.252;2022-08-19T06:47:13;12.37;;;11.17;;
7289;SDS011;3686;52.678;13.252;2022-08-19T06:49:40;11.73;;;10.07;;
7289;SDS011;3686;52.678;13.252;2022-08-19T06:52:06;14.57;;;9.87;;
7289;SDS011;3686;52.678;13.252;2022-08-19T06:54:32;14.40;;;10.20;;
7289;SDS011;3686;52.678;13.252;2022-08-19T06:56:59;12.40;;;10.13;;
7289;SDS011;3686;52.678;13.252;2022-08-19T06:59:27;12.03;;;8.80;;
7289;SDS011;3686;52.678;13.252;2022-08-19T07:01:56;11.50;;;9.77;;
7289;SDS011;3686;52.678;13.252;2022-08-19T07:04:23;11.73;;;10.30;;
7289;SDS011;3686;52.678;13.252;2022-08-19T07:07:13;12.00;;;10.13;;
7289;SDS011;3686;52.678;13.252;2022-08-19T07:09:40;12.83;;;10.70;;
7289;SDS011;3686;52.678;13.252;2022-08-19T07:12:08;12.73;;;10.47;;
7289;SDS011;3686;52.678;13.252;2022-08-19T07:14:36;14.20;;;9.83;;
7289;SDS011;3686;52.678;13.252;2022-08-19T07:17:04;16.07;;;11.20;;
7289;SDS011;3686;52.678;13.252;2022-08-19T07:19:32;10.83;;;9.73;;
7289;SDS011;3686;52.678;13.252;2022-08-19T07:21:58;11.90;;;10.70;;
7289;SDS011;3686;52.678;13.252;2022-08-19T07:24:25;15.93;;;10.90;;
7289;SDS011;3686;52.678;13.252;2022-08-19T07:26:53;13.30;;;11.90;;
7289;SDS011;3686;52.678;13.252;2022-08-19T07:29:25;11.13;;;9.90;;
7289;SDS011;3686;52.678;13.252;2022-08-19T07:31:52;12.17;;;10.80;;
7289;SDS011;3686;52.678;13.252;2022-08-19T07:34:21;14.53;;;11.80;;
7289;SDS011;3686;52.678;13.252;2022-08-19T07:36:48;12.37;;;9.63;;
7289;SDS011;3686;52.678;13.252;2022-08-19T07:39:15;11.07;;;9.97;;
7289;SDS011;3686;52.678;13.252;2022-08-19T07:41:44;11.20;;;10.07;;
7289;SDS011;3686;52.678;13.252;2022-08-19T07:44:11;10.70;;;9.60;;
7289;SDS011;3686;52.678;13.252;2022-08-19T07:46:38;13.07;;;11.07;;
7289;SDS011;3686;52.678;13.252;2022-08-19T07:49:06;11.33;;;10.13;;
7289;SDS011;3686;52.678;13.252;2022-08-19T07:51:33;11.53;;;9.30;;
7289;SDS011;3686;52.678;13.252;2022-08-19T07:53:59;13.40;;;11.43;;
7289;SDS011;3686;52.678;13.252;2022-08-19T07:56:25;10.17;;;8.80;;
7289;SDS011;3686;52.678;13.252;2022-08-19T07:58:51;12.33;;;9.77;;
7289;SDS011;3686;52.678;13.252;2022-08-19T08:01:19;13.60;;;10.60;;
7289;SDS011;3686;52.678;13.252;2022-08-19T08:03:47;13.10;;;10.30;;
7289;SDS011;3686;52.678;13.252;2022-08-19T08:06:33;14.13;;;9.67;;
7289;SDS011;3686;52.678;13.252;2022-08-19T08:09:19;10.83;;;9.70;;
7289;SDS011;3686;52.678;13.252;2022-08-19T08:11:59;13.90;;;10.37;;
7289;SDS011;3686;52.678;13.252;2022-08-19T08:14:29;11.87;;;9.63;;
7289;SDS011;3686;52.678;13.252;2022-08-19T08:17:02;11.47;;;9.87;;
7289;SDS011;3686;52.678;13.252;2022-08-19T08:19:29;12.73;;;10.03;;
7289;SDS011;3686;52.678;13.252;2022-08-19T08:21:57;11.37;;;10.17;;
7289;SDS011;3686;52.678;13.252;2022-08-19T08:24:25;11.73;;;10.10;;
7289;SDS011;3686;52.678;13.252;2022-08-19T08:26:52;12.03;;;9.87;;
7289;SDS011;3686;52.678;13.252;2022-08-19T08:29:18;10.70;;;9.60;;
7289;SDS011;3686;52.678;13.252;2022-08-19T08:31:44;12.80;;;10.63;;
7289;SDS011;3686;52.678;13.252;2022-08-19T08:34:11;11.10;;;9.70;;
7289;SDS011;3686;52.678;13.252;2022-08-19T08:36:39;10.73;;;9.47;;
7289;SDS011;3686;52.678;13.252;2022-08-19T08:39:08;11.70;;;10.50;;
7289;SDS011;3686;52.678;13.252;2022-08-19T08:41:37;13.23;;;11.83;;
7289;SDS011;3686;52.678;13.252;2022-08-19T08:44:06;14.93;;;11.10;;
7289;SDS011;3686;52.678;13.252;2022-08-19T08:51:44;12.90;;;10.63;;
7289;SDS011;3686;52.678;13.252;2022-08-19T08:54:28;12.30;;;10.30;;
7289;SDS011;3686;52.678;13.252;2022-08-19T08:56:58;13.97;;;11.27;;
7289;SDS011;3686;52.678;13.252;2022-08-19T08:59:31;11.90;;;10.70;;
7289;SDS011;3686;52.678;13.252;2022-08-19T09:02:01;13.83;;;10.03;;
7289;SDS011;3686;52.678;13.252;2022-08-19T09:04:27;12.90;;;10.07;;
7289;SDS011;3686;52.678;13.252;2022-08-19T09:07:13;10.80;;;9.50;;
7289;SDS011;3686;52.678;13.252;2022-08-19T09:10:43;13.60;;;10.47;;
7289;SDS011;3686;52.678;13.252;2022-08-19T09:13:16;13.37;;;10.67;;
7289;SDS011;3686;52.678;13.252;2022-08-19T09:15:55;13.67;;;10.33;;
7289;SDS011;3686;52.678;13.252;2022-08-19T09:18:25;12.57;;;10.33;;
7289;SDS011;3686;52.678;13.252;2022-08-19T09:21:03;13.17;;;10.17;;
7289;SDS011;3686;52.678;13.252;2022-08-19T09:23:28;14.13;;;10.40;;
7289;SDS011;3686;52.678;13.252;2022-08-19T09:25:54;10.93;;;9.60;;
7289;SDS011;3686;52.678;13.252;2022-08-19T09:28:20;11.00;;;9.70;;
7289;SDS011;3686;52.678;13.252;2022-08-19T09:30:45;13.17;;;10.33;;
7289;SDS011;3686;52.678;13.252;2022-08-19T09:33:11;12.33;;;10.30;;
7289;SDS011;3686;52.678;13.252;2022-08-19T09:35:36;13.40;;;10.97;;
7289;SDS011;3686;52.678;13.252;2022-08-19T09:38:02;12.73;;;10.63;;
7289;SDS011;3686;52.678;13.252;2022-08-19T09:40:28;15.80;;;10.40;;
7289;SDS011;3686;52.678;13.252;2022-08-19T09:42:54;12.47;;;10.50;;
7289;SDS011;3686;52.678;13.252;2022-08-19T09:45:22;10.87;;;9.70;;
7289;SDS011;3686;52.678;13.252;2022-08-19T09:47:48;10.90;;;9.80;;
7289;SDS011;3686;52.678;13.252;2022-08-19T09:50:15;11.33;;;10.10;;
7289;SDS011;3686;52.678;13.252;2022-08-19T09:52:43;13.23;;;9.63;;
7289;SDS011;3686;52.678;13.252;2022-08-19T09:55:09;10.37;;;9.27;;
7289;SDS011;3686;52.678;13.252;2022-08-19T09:57:36;11.73;;;10.53;;
7289;SDS011;3686;52.678;13.252;2022-08-19T10:00:06;14.63;;;10.27;;
7289;SDS011;3686;52.678;13.252;2022-08-19T10:02:34;11.63;;;9.83;;
7289;SDS011;3686;52.678;13.252;2022-08-19T10:05:00;10.83;;;9.20;;
7289;SDS011;3686;52.678;13.252;2022-08-19T10:07:44;12.00;;;10.27;;
7289;SDS011;3686;52.678;13.252;2022-08-19T10:10:10;10.80;;;9.67;;
7289;SDS011;3686;52.678;13.252;2022-08-19T10:12:37;11.07;;;9.87;;
7289;SDS011;3686;52.678;13.252;2022-08-19T10:15:03;10.50;;;9.30;;
7289;SDS011;3686;52.678;13.252;2022-08-19T10:17:31;11.97;;;9.20;;
7289;SDS011;3686;52.678;13.252;2022-08-19T10:19:58;13.80;;;8.73;;
7289;SDS011;3686;52.678;13.252;2022-08-19T10:22:24;11.47;;;10.27;;
7289;SDS011;3686;52.678;13.252;2022-08-19T10:24:50;10.00;;;8.90;;
7289;SDS011;3686;52.678;13.252;2022-08-19T10:27:17;14.53;;;9.23;;
7289;SDS011;3686;52.678;13.252;2022-08-19T10:29:43;11.20;;;9.43;;
7289;SDS011;3686;52.678;13.252;2022-08-19T10:32:08;10.33;;;9.33;;
7289;SDS011;3686;52.678;13.252;2022-08-19T10:34:36;12.40;;;9.33;;
7289;SDS011;3686;52.678;13.252;2022-08-19T10:37:03;11.00;;;9.20;;
7289;SDS011;3686;52.678;13.252;2022-08-19T10:39:33;14.07;;;8.70;;
7289;SDS011;3686;52.678;13.252;2022-08-19T10:42:04;9.67;;;8.67;;
7289;SDS011;3686;52.678;13.252;2022-08-19T10:44:31;14.17;;;8.97;;
7289;SDS011;3686;52.678;13.252;2022-08-19T10:47:00;12.43;;;9.10;;
7289;SDS011;3686;52.678;13.252;2022-08-19T10:49:26;10.70;;;9.60;;
7289;SDS011;3686;52.678;13.252;2022-08-19T10:51:52;10.57;;;9.23;;
7289;SDS011;3686;52.678;13.252;2022-08-19T10:54:36;13.10;;;8.57;;
7289;SDS011;3686;52.678;13.252;2022-08-19T10:57:20;11.70;;;10.50;;
7289;SDS011;3686;52.678;13.252;2022-08-19T10:59:49;10.20;;;9.20;;
7289;SDS011;3686;52.678;13.252;2022-08-19T11:02:15;10.03;;;8.93;;
7289;SDS011;3686;52.678;13.252;2022-08-19T11:04:40;11.07;;;9.87;;
7289;SDS011;3686;52.678;13.252;2022-08-19T11:07:06;8.50;;;7.60;;
7289;SDS011;3686;52.678;13.252;2022-08-19T11:09:36;9.23;;;7.43;;
7289;SDS011;3686;52.678;13.252;2022-08-19T11:12:04;12.33;;;8.67;;
7289;SDS011;3686;52.678;13.252;2022-08-19T11:14:31;7.87;;;7.07;;
7289;SDS011;3686;52.678;13.252;2022-08-19T11:16:58;8.33;;;7.53;;
7289;SDS011;3686;52.678;13.252;2022-08-19T11:19:24;7.33;;;6.63;;
7289;SDS011;3686;52.678;13.252;2022-08-19T11:21:50;7.57;;;6.83;;
7289;SDS011;3686;52.678;13.252;2022-08-19T11:24:22;7.33;;;6.63;;
7289;SDS011;3686;52.678;13.252;2022-08-19T11:26:50;8.27;;;7.33;;
7289;SDS011;3686;52.678;13.252;2022-08-19T11:29:18;6.63;;;6.00;;
7289;SDS011;3686;52.678;13.252;2022-08-19T11:31:46;8.87;;;7.47;;
7289;SDS011;3686;52.678;13.252;2022-08-19T11:34:14;7.43;;;6.73;;
7289;SDS011;3686;52.678;13.252;2022-08-19T11:36:43;10.70;;;7.57;;
7289;SDS011;3686;52.678;13.252;2022-08-19T11:39:11;8.80;;;7.90;;
7289;SDS011;3686;52.678;13.252;2022-08-19T11:41:39;7.30;;;6.60;;
7289;SDS011;3686;52.678;13.252;2022-08-19T11:44:05;6.93;;;6.33;;
7289;SDS011;3686;52.678;13.252;2022-08-19T11:46:32;7.27;;;6.57;;
7289;SDS011;3686;52.678;13.252;2022-08-19T11:48:59;7.30;;;6.37;;
7289;SDS011;3686;52.678;13.252;2022-08-19T11:51:28;7.40;;;6.70;;
7289;SDS011;3686;52.678;13.252;2022-08-19T11:53:55;7.60;;;6.50;;
7289;SDS011;3686;52.678;13.252;2022-08-19T11:56:23;6.93;;;6.20;;
7289;SDS011;3686;52.678;13.252;2022-08-19T11:58:50;11.33;;;6.93;;
7289;SDS011;3686;52.678;13.252;2022-08-19T12:01:17;7.47;;;6.40;;
7289;SDS011;3686;52.678;13.252;2022-08-19T12:03:45;8.13;;;6.73;;
7289;SDS011;3686;52.678;13.252;2022-08-19T12:06:18;7.50;;;6.80;;
7289;SDS011;3686;52.678;13.252;2022-08-19T12:08:55;9.23;;;7.20;;
7289;SDS011;3686;52.678;13.252;2022-08-19T12:11:21;7.63;;;6.87;;
7289;SDS011;3686;52.678;13.252;2022-08-19T12:13:48;10.40;;;8.10;;
7289;SDS011;3686;52.678;13.252;2022-08-19T12:16:16;9.20;;;7.60;;
7289;SDS011;3686;52.678;13.252;2022-08-19T12:18:46;8.90;;;8.00;;
7289;SDS011;3686;52.678;13.252;2022-08-19T12:21:12;10.80;;;7.80;;
7289;SDS011;3686;52.678;13.252;2022-08-19T12:23:42;9.90;;;7.60;;
7289;SDS011;3686;52.678;13.252;2022-08-19T12:26:10;8.27;;;7.43;;
7289;SDS011;3686;52.678;13.252;2022-08-19T12:28:36;9.20;;;7.70;;
7289;SDS011;3686;52.678;13.252;2022-08-19T12:31:03;7.90;;;7.10;;
7289;SDS011;3686;52.678;13.252;2022-08-19T12:33:30;8.40;;;7.60;;
7289;SDS011;3686;52.678;13.252;2022-08-19T12:35:59;8.17;;;7.30;;
7289;SDS011;3686;52.678;13.252;2022-08-19T12:38:28;9.20;;;8.20;;
7289;SDS011;3686;52.678;13.252;2022-08-19T12:40:54;9.60;;;8.60;;
7289;SDS011;3686;52.678;13.252;2022-08-19T12:43:20;10.20;;;7.73;;
7289;SDS011;3686;52.678;13.252;2022-08-19T12:45:46;7.97;;;7.17;;
7289;SDS011;3686;52.678;13.252;2022-08-19T12:48:12;11.03;;;8.10;;
7289;SDS011;3686;52.678;13.252;2022-08-19T12:50:40;8.53;;;6.93;;
7289;SDS011;3686;52.678;13.252;2022-08-19T12:53:06;9.13;;;7.80;;
7289;SDS011;3686;52.678;13.252;2022-08-19T12:55:31;8.23;;;7.37;;
7289;SDS011;3686;52.678;13.252;2022-08-19T12:57:57;8.80;;;7.90;;
7289;SDS011;3686;52.678;13.252;2022-08-19T13:00:23;8.23;;;7.37;;
7289;SDS011;3686;52.678;13.252;2022-08-19T13:02:50;9.13;;;7.30;;
7289;SDS011;3686;52.678;13.252;2022-08-19T13:05:18;9.47;;;8.50;;
7289;SDS011;3686;52.678;13.252;2022-08-19T13:07:47;8.20;;;7.27;;
7289;SDS011;3686;52.678;13.252;2022-08-19T13:10:15;9.23;;;7.47;;
7289;SDS011;3686;52.678;13.252;2022-08-19T13:12:42;8.80;;;7.90;;
7289;SDS011;3686;52.678;13.252;2022-08-19T13:15:09;9.03;;;8.17;;
7289;SDS011;3686;52.678;13.252;2022-08-19T13:17:36;7.77;;;7.07;;
7289;SDS011;3686;52.678;13.252;2022-08-19T13:20:03;10.03;;;7.13;;
7289;SDS011;3686;52.678;13.252;2022-08-19T13:22:31;8.23;;;7.40;;
7289;SDS011;3686;52.678;13.252;2022-08-19T13:24:56;8.63;;;7.00;;
7289;SDS011;3686;52.678;13.252;2022-08-19T13:27:22;8.93;;;7.33;;
7289;SDS011;3686;52.678;13.252;2022-08-19T13:29:48;7.77;;;6.97;;
7289;SDS011;3686;52.678;13.252;2022-08-19T13:32:32;7.53;;;6.83;;
7289;SDS011;3686;52.678;13.252;2022-08-19T13:35:16;7.23;;;6.53;;
7289;SDS011;3686;52.678;13.252;2022-08-19T13:37:42;6.80;;;6.03;;
7289;SDS011;3686;52.678;13.252;2022-08-19T13:40:17;8.07;;;6.43;;
7289;SDS011;3686;52.678;13.252;2022-08-19T13:42:49;6.53;;;6.00;;
7289;SDS011;3686;52.678;13.252;2022-08-19T13:45:18;8.63;;;6.60;;
7289;SDS011;3686;52.678;13.252;2022-08-19T13:47:50;7.00;;;6.30;;
7289;SDS011;3686;52.678;13.252;2022-08-19T13:50:18;7.20;;;6.60;;
7289;SDS011;3686;52.678;13.252;2022-08-19T13:52:46;6.20;;;5.60;;
7289;SDS011;3686;52.678;13.252;2022-08-19T13:55:12;7.10;;;6.40;;
7289;SDS011;3686;52.678;13.252;2022-08-19T13:57:39;8.03;;;7.30;;
7289;SDS011;3686;52.678;13.252;2022-08-19T14:00:08;7.77;;;6.80;;
7289;SDS011;3686;52.678;13.252;2022-08-19T14:02:37;7.00;;;6.40;;
7289;SDS011;3686;52.678;13.252;2022-08-19T14:05:04;7.20;;;6.50;;
7289;SDS011;3686;52.678;13.252;2022-08-19T14:07:31;7.70;;;6.37;;
7289;SDS011;3686;52.678;13.252;2022-08-19T14:09:57;8.50;;;6.97;;
7289;SDS011;3686;52.678;13.252;2022-08-19T14:12:22;6.40;;;5.80;;
7289;SDS011;3686;52.678;13.252;2022-08-19T14:14:48;6.67;;;6.07;;
7289;SDS011;3686;52.678;13.252;2022-08-19T14:17:14;8.53;;;6.20;;
7289;SDS011;3686;52.678;13.252;2022-08-19T14:19:40;7.10;;;6.50;;
7289;SDS011;3686;52.678;13.252;2022-08-19T14:22:06;6.20;;;5.60;;
7289;SDS011;3686;52.678;13.252;2022-08-19T14:24:32;5.77;;;5.27;;
7289;SDS011;3686;52.678;13.252;2022-08-19T14:26:58;5.83;;;5.23;;
7289;SDS011;3686;52.678;13.252;2022-08-19T14:29:24;6.30;;;5.70;;
7289;SDS011;3686;52.678;13.252;2022-08-19T14:31:51;6.07;;;5.50;;
7289;SDS011;3686;52.678;13.252;2022-08-19T14:34:17;5.90;;;5.37;;
7289;SDS011;3686;52.678;13.252;2022-08-19T14:36:43;6.47;;;5.87;;
7289;SDS011;3686;52.678;13.252;2022-08-19T14:39:10;7.30;;;6.50;;
7289;SDS011;3686;52.678;13.252;2022-08-19T14:41:36;9.10;;;5.73;;
7289;SDS011;3686;52.678;13.252;2022-08-19T14:44:05;6.73;;;6.07;;
7289;SDS011;3686;52.678;13.252;2022-08-19T14:46:31;6.50;;;5.90;;
7289;SDS011;3686;52.678;13.252;2022-08-19T14:48:57;6.50;;;5.77;;
7289;SDS011;3686;52.678;13.252;2022-08-19T14:51:24;6.27;;;5.67;;
7289;SDS011;3686;52.678;13.252;2022-08-19T14:53:53;8.10;;;5.90;;
7289;SDS011;3686;52.678;13.252;2022-08-19T14:56:20;8.90;;;5.87;;
7289;SDS011;3686;52.678;13.252;2022-08-19T14:58:47;6.57;;;5.97;;
7289;SDS011;3686;52.678;13.252;2022-08-19T15:01:17;7.63;;;5.73;;
7289;SDS011;3686;52.678;13.252;2022-08-19T15:03:45;7.10;;;6.40;;
7289;SDS011;3686;52.678;13.252;2022-08-19T15:06:11;6.93;;;6.30;;
7289;SDS011;3686;52.678;13.252;2022-08-19T15:08:38;7.17;;;6.47;;
7289;SDS011;3686;52.678;13.252;2022-08-19T15:11:09;6.90;;;6.20;;
7289;SDS011;3686;52.678;13.252;2022-08-19T15:13:37;7.23;;;6.00;;
7289;SDS011;3686;52.678;13.252;2022-08-19T15:16:04;8.10;;;6.17;;
7289;SDS011;3686;52.678;13.252;2022-08-19T15:18:30;7.73;;;6.93;;
7289;SDS011;3686;52.678;13.252;2022-08-19T15:20:57;6.97;;;6.37;;
7289;SDS011;3686;52.678;13.252;2022-08-19T15:23:24;8.47;;;5.37;;
7289;SDS011;3686;52.678;13.252;2022-08-19T15:25:50;8.83;;;6.50;;